Time;durP1;ratioP1;P1;durP2;ratioP2;P2;SDS_P1;SDS_P2;PMS_P1;PMS_P2;Temp;Humidity;BMP_temperature;BMP_pressure;BME280_temperature;BME280_humidity;BME280_pressure;Samples;Min_cycle;Max_cycle;Signal;HPM_P1;HPM_P2
2022/06/21 00:00:32;;;;;;;3.25;2.95;;;;;;;;;;10437676;28;20148;-75
2022/06/21 00:05:34;;;;;;;3.00;2.70;;;;;;;;;;10445075;28;20448;-74
2022/06/21 00:10:34;;;;;;;3.08;2.80;;;;;;;;;;10430925;28;20052;-73
2022/06/21 00:15:35;;;;;;;4.25;2.63;;;;;;;;;;10443997;28;20056;-73
2022/06/21 00:20:36;;;;;;;2.97;2.65;;;;;;;;;;10443100;28;20086;-74
2022/06/21 00:25:36;;;;;;;5.30;3.22;;;;;;;;;;10435605;28;20627;-74
2022/06/21 00:30:39;;;;;;;2.97;2.70;;;;;;;;;;10430138;28;20045;-75
2022/06/21 00:35:41;;;;;;;3.53;3.00;;;;;;;;;;10437106;28;20358;-75
2022/06/21 00:40:42;;;;;;;3.83;3.42;;;;;;;;;;10432750;28;20177;-74
2022/06/21 00:45:44;;;;;;;5.95;3.10;;;;;;;;;;10428548;28;20140;-74
2022/06/21 00:50:46;;;;;;;4.95;3.30;;;;;;;;;;10431751;28;20488;-75
2022/06/21 00:55:52;;;;;;;4.65;3.25;;;;;;;;;;10408516;28;20380;-74
2022/06/21 01:01:11;;;;;;;4.53;3.20;;;;;;;;;;10404253;28;20065;-75
2022/06/21 01:11:40;;;;;;;5.03;2.90;;;;;;;;;;10227423;23;20056;-74
2022/06/21 01:16:41;;;;;;;3.42;2.70;;;;;;;;;;10218313;28;20131;-74
2022/06/21 01:21:52;;;;;;;3.47;2.88;;;;;;;;;;10216528;28;20059;-75
2022/06/21 01:26:53;;;;;;;3.42;3.13;;;;;;;;;;10221310;28;20047;-73
2022/06/21 01:31:55;;;;;;;4.18;3.33;;;;;;;;;;10218923;28;20043;-75
2022/06/21 01:36:59;;;;;;;3.67;3.30;;;;;;;;;;10223508;28;20460;-75
2022/06/21 01:42:11;;;;;;;4.85;3.58;;;;;;;;;;10237269;28;20155;-74
2022/06/21 01:47:13;;;;;;;3.55;3.10;;;;;;;;;;10233655;28;20065;-74
2022/06/21 01:52:15;;;;;;;4.70;3.15;;;;;;;;;;10222761;28;20075;-75
2022/06/21 01:57:16;;;;;;;5.38;3.70;;;;;;;;;;10219262;28;20075;-76
2022/06/21 02:02:23;;;;;;;3.72;2.85;;;;;;;;;;10228576;28;20709;-75
2022/06/21 02:07:27;;;;;;;3.83;3.42;;;;;;;;;;10223381;28;20074;-78
2022/06/21 02:12:28;;;;;;;5.05;3.45;;;;;;;;;;10215071;28;20035;-75
2022/06/21 02:17:34;;;;;;;4.00;3.50;;;;;;;;;;10222311;28;20395;-73
2022/06/21 02:22:34;;;;;;;3.67;3.38;;;;;;;;;;10224753;28;20787;-73
2022/06/21 02:27:35;;;;;;;4.18;3.40;;;;;;;;;;10209311;28;20059;-75
2022/06/21 02:32:37;;;;;;;3.67;3.15;;;;;;;;;;10223304;28;20043;-73
2022/06/21 02:37:37;;;;;;;6.15;3.90;;;;;;;;;;10222139;28;20134;-74
2022/06/21 02:42:40;;;;;;;4.53;3.75;;;;;;;;;;10218436;28;20059;-73
2022/06/21 02:47:42;;;;;;;5.10;3.72;;;;;;;;;;10227628;28;20051;-73
2022/06/21 02:52:43;;;;;;;5.43;4.50;;;;;;;;;;10219525;28;20055;-77
2022/06/21 02:57:47;;;;;;;4.47;4.07;;;;;;;;;;10221347;28;20966;-74
2022/06/21 03:02:47;;;;;;;5.00;4.32;;;;;;;;;;10220485;28;20315;-73
2022/06/21 03:07:53;;;;;;;5.05;3.80;;;;;;;;;;10223437;28;20043;-74
2022/06/21 03:13:14;;;;;;;4.88;4.20;;;;;;;;;;10221343;28;20051;-74
2022/06/21 03:18:21;;;;;;;5.30;3.90;;;;;;;;;;10208602;28;20430;-76
2022/06/21 03:23:22;;;;;;;4.60;3.83;;;;;;;;;;10230412;28;20051;-74
2022/06/21 03:28:38;;;;;;;4.40;3.58;;;;;;;;;;10221109;28;20123;-74
2022/06/21 03:33:43;;;;;;;6.25;3.90;;;;;;;;;;10225829;28;20083;-74
2022/06/21 03:38:48;;;;;;;5.20;3.92;;;;;;;;;;10234368;28;20066;-75
2022/06/21 03:43:54;;;;;;;3.58;3.28;;;;;;;;;;10223529;28;20051;-76
2022/06/21 03:48:59;;;;;;;4.38;3.92;;;;;;;;;;10212289;28;20066;-75
2022/06/21 03:54:02;;;;;;;4.30;3.40;;;;;;;;;;10226631;28;20500;-76
2022/06/21 03:59:18;;;;;;;3.88;3.47;;;;;;;;;;10220990;28;20051;-74
2022/06/21 04:04:29;;;;;;;3.95;3.60;;;;;;;;;;10223148;28;20059;-76
2022/06/21 04:09:42;;;;;;;5.47;4.63;;;;;;;;;;10230480;28;20058;-74
2022/06/21 04:15:14;;;;;;;6.90;4.70;;;;;;;;;;10222598;28;20503;-73
2022/06/21 04:20:18;;;;;;;5.35;4.85;;;;;;;;;;10202872;28;20059;-74
2022/06/21 04:25:26;;;;;;;6.25;4.65;;;;;;;;;;10242797;28;20059;-73
2022/06/21 04:30:30;;;;;;;6.78;5.00;;;;;;;;;;10227082;28;20451;-74
2022/06/21 04:35:35;;;;;;;5.00;4.30;;;;;;;;;;10225167;28;20129;-74
2022/06/21 04:40:44;;;;;;;4.72;4.22;;;;;;;;;;10231679;28;20518;-73
2022/06/21 04:45:54;;;;;;;5.47;4.18;;;;;;;;;;10242543;28;20553;-73
2022/06/21 04:51:17;;;;;;;6.65;4.45;;;;;;;;;;10223317;28;20140;-73
2022/06/21 04:56:18;;;;;;;4.43;4.00;;;;;;;;;;10220843;28;20063;-71
2022/06/21 05:01:32;;;;;;;4.70;3.83;;;;;;;;;;10222241;28;20098;-72
2022/06/21 05:06:33;;;;;;;5.53;3.80;;;;;;;;;;10209546;28;20278;-72
2022/06/21 05:11:34;;;;;;;4.10;3.70;;;;;;;;;;10233982;28;20051;-70
2022/06/21 05:16:36;;;;;;;4.40;3.88;;;;;;;;;;10233646;28;20546;-74
2022/06/21 05:21:43;;;;;;;4.53;3.97;;;;;;;;;;10227809;28;20063;-73
2022/06/21 05:26:46;;;;;;;5.45;4.55;;;;;;;;;;10236299;28;20078;-71
2022/06/21 05:31:46;;;;;;;;;;;;;;;;;;10223005;28;20144;-70
2022/06/21 05:36:51;;;;;;;4.63;4.18;;;;;;;;;;10231036;28;20002;-71
2022/06/21 05:41:54;;;;;;;4.10;3.50;;;;;;;;;;10231767;28;20067;-72
2022/06/21 05:46:55;;;;;;;;;;;;;;;;;;10234575;28;20122;-70
2022/06/21 05:51:57;;;;;;;4.22;3.83;;;;;;;;;;10229554;28;19918;-70
2022/06/21 05:56:59;;;;;;;5.13;3.38;;;;;;;;;;10229185;28;20051;-72
2022/06/21 06:02:09;;;;;;;7.22;4.25;;;;;;;;;;10228886;28;20127;-71
2022/06/21 06:07:22;;;;;;;4.93;3.47;;;;;;;;;;10225017;28;20135;-75
2022/06/21 06:12:28;;;;;;;4.23;3.50;;;;;;;;;;10223085;28;20066;-71
2022/06/21 06:17:33;;;;;;;3.53;3.22;;;;;;;;;;10226114;28;20054;-72
2022/06/21 06:22:39;;;;;;;3.15;2.95;;;;;;;;;;10232587;28;20391;-73
2022/06/21 06:27:57;;;;;;;5.88;3.83;;;;;;;;;;10243873;28;20047;-73
2022/06/21 06:33:07;;;;;;;4.32;3.20;;;;;;;;;;10228863;28;21440;-73
2022/06/21 06:38:08;;;;;;;3.40;3.00;;;;;;;;;;10228914;28;20059;-74
2022/06/21 06:43:23;;;;;;;7.05;3.50;;;;;;;;;;10230807;28;20059;-71
2022/06/21 06:48:26;;;;;;;6.05;4.18;;;;;;;;;;10223032;28;20051;-71
2022/06/21 06:53:31;;;;;;;5.70;4.35;;;;;;;;;;10231839;28;20052;-73
2022/06/21 06:58:37;;;;;;;5.07;4.13;;;;;;;;;;10230863;28;20055;-74
2022/06/21 07:03:41;;;;;;;4.93;4.15;;;;;;;;;;10226505;28;20044;-71
2022/06/21 07:08:44;;;;;;;3.95;3.22;;;;;;;;;;10228108;28;20574;-79
2022/06/21 07:13:45;;;;;;;5.72;4.57;;;;;;;;;;10219009;28;20051;-71
2022/06/21 07:18:47;;;;;;;6.53;4.13;;;;;;;;;;10214984;28;20043;-74
2022/06/21 07:23:48;;;;;;;4.25;3.85;;;;;;;;;;10213343;28;20043;-73
2022/06/21 07:28:53;;;;;;;6.10;3.90;;;;;;;;;;10220706;28;20388;-72
2022/06/21 07:34:00;;;;;;;7.70;4.03;;;;;;;;;;10218434;28;20340;-72
2022/06/21 07:39:04;;;;;;;4.95;3.50;;;;;;;;;;10226598;28;20056;-75
2022/06/21 07:44:10;;;;;;;4.28;3.38;;;;;;;;;;10227865;28;20049;-73
2022/06/21 07:49:19;;;;;;;5.88;3.33;;;;;;;;;;10229864;28;20099;-72
2022/06/21 07:54:34;;;;;;;5.60;3.53;;;;;;;;;;10251443;28;20058;-73
2022/06/21 07:59:38;;;;;;;5.65;3.05;;;;;;;;;;10227662;28;20805;-73
2022/06/21 08:10:13;;;;;;;4.30;3.20;;;;;;;;;;10220354;28;20453;-74
2022/06/21 08:15:13;;;;;;;5.70;3.40;;;;;;;;;;10238255;28;20043;-72
2022/06/21 08:20:17;;;;;;;4.35;2.75;;;;;;;;;;10248333;28;20047;-72
2022/06/21 08:25:18;;;;;;;3.45;2.88;;;;;;;;;;10235486;28;20051;-73
2022/06/21 08:30:20;;;;;;;4.90;3.27;;;;;;;;;;10243557;28;20039;-73
2022/06/21 08:35:21;;;;;;;;;;;;;;;;;;10237064;28;20418;-71
2022/06/21 08:40:43;;;;;;;4.88;2.88;;;;;;;;;;10230280;28;19926;-73
2022/06/21 08:45:49;;;;;;;5.28;3.40;;;;;;;;;;10231085;28;20043;-74
2022/06/21 08:50:56;;;;;;;4.55;2.55;;;;;;;;;;10234384;28;20506;-73
2022/06/21 08:56:00;;;;;;;2.80;2.47;;;;;;;;;;10232500;28;20178;-73
2022/06/21 09:01:03;;;;;;;3.65;2.83;;;;;;;;;;10230240;28;20106;-72
2022/06/21 09:06:16;;;;;;;6.10;3.25;;;;;;;;;;10219002;28;20055;-73
2022/06/21 09:11:25;;;;;;;2.70;2.50;;;;;;;;;;10220687;28;20446;-74
2022/06/21 09:16:28;;;;;;;4.35;3.40;;;;;;;;;;10226076;28;20426;-76
2022/06/21 09:21:55;;;;;;;4.30;2.63;;;;;;;;;;10227819;28;20055;-75
2022/06/21 09:27:04;;;;;;;3.40;2.63;;;;;;;;;;10200071;28;20088;-75
2022/06/21 09:32:31;;;;;;;4.88;2.50;;;;;;;;;;10228439;28;20055;-77
2022/06/21 09:38:01;;;;;;;4.13;2.15;;;;;;;;;;10230851;28;20051;-74
2022/06/21 09:43:04;;;;;;;2.92;2.08;;;;;;;;;;10224718;28;20055;-74
2022/06/21 09:48:07;;;;;;;3.05;2.28;;;;;;;;;;10249335;28;20052;-78
2022/06/21 09:53:11;;;;;;;2.20;2.00;;;;;;;;;;10231525;28;20074;-74
2022/06/21 09:58:34;;;;;;;2.85;2.10;;;;;;;;;;10242557;28;20081;-80
2022/06/21 10:03:56;;;;;;;2.75;1.92;;;;;;;;;;10221000;28;20062;-76
2022/06/21 10:09:04;;;;;;;2.95;2.13;;;;;;;;;;10236879;28;20526;-74
2022/06/21 10:14:05;;;;;;;3.15;2.08;;;;;;;;;;10229485;28;20055;-75
2022/06/21 10:19:11;;;;;;;6.30;2.00;;;;;;;;;;10235661;28;20410;-76
2022/06/21 10:24:18;;;;;;;2.50;1.85;;;;;;;;;;10231177;28;20073;-76
2022/06/21 10:29:18;;;;;;;2.33;2.13;;;;;;;;;;10224661;28;20525;-75
2022/06/21 10:34:27;;;;;;;2.13;1.70;;;;;;;;;;10219100;28;20042;-73
2022/06/21 10:39:46;;;;;;;3.45;2.15;;;;;;;;;;10231447;28;20291;-74
2022/06/21 10:44:54;;;;;;;2.50;1.73;;;;;;;;;;10231748;28;20134;-74
2022/06/21 10:50:08;;;;;;;1.83;1.60;;;;;;;;;;10230975;28;20709;-76
2022/06/21 10:55:15;;;;;;;2.88;1.50;;;;;;;;;;10235508;28;20047;-74
2022/06/21 11:05:46;;;;;;;3.13;1.40;;;;;;;;;;10224107;28;20067;-74
2022/06/21 11:10:53;;;;;;;1.55;1.30;;;;;;;;;;10226380;28;20059;-74
2022/06/21 11:15:54;;;;;;;2.90;1.42;;;;;;;;;;10231580;28;20650;-73
2022/06/21 11:20:55;;;;;;;2.85;1.40;;;;;;;;;;10246321;28;20051;-71
2022/06/21 11:26:12;;;;;;;2.33;1.25;;;;;;;;;;10239523;28;20047;-75
2022/06/21 11:31:13;;;;;;;3.53;1.75;;;;;;;;;;10239509;28;20102;-75
2022/06/21 11:36:22;;;;;;;2.27;1.50;;;;;;;;;;10241914;28;20039;-75
2022/06/21 11:46:54;;;;;;;3.22;1.60;;;;;;;;;;10238493;28;20118;-72
2022/06/21 11:52:17;;;;;;;2.80;2.00;;;;;;;;;;10234975;28;20047;-73
2022/06/21 11:57:27;;;;;;;3.03;1.75;;;;;;;;;;10231951;28;20059;-73
2022/06/21 12:02:34;;;;;;;3.08;1.65;;;;;;;;;;10217678;28;20501;-73
2022/06/21 12:07:37;;;;;;;2.20;1.60;;;;;;;;;;10222378;28;20151;-74
2022/06/21 12:12:49;;;;;;;2.42;1.70;;;;;;;;;;10221365;28;20375;-73
2022/06/21 12:17:59;;;;;;;2.25;1.63;;;;;;;;;;10230161;28;21306;-73
2022/06/21 12:23:02;;;;;;;2.47;1.70;;;;;;;;;;10225465;28;20063;-73
2022/06/21 12:28:08;;;;;;;2.95;1.40;;;;;;;;;;10222910;28;20048;-73
2022/06/21 12:33:10;;;;;;;1.80;1.50;;;;;;;;;;10228512;28;20043;-72
2022/06/21 12:38:13;;;;;;;2.03;1.63;;;;;;;;;;10233446;28;20047;-73
2022/06/21 12:43:20;;;;;;;1.92;1.50;;;;;;;;;;10234776;28;20090;-74
2022/06/21 12:48:54;;;;;;;1.58;1.45;;;;;;;;;;10230111;28;20101;-72
2022/06/21 12:54:03;;;;;;;2.05;1.52;;;;;;;;;;10207729;28;20066;-72
2022/06/21 12:59:09;;;;;;;1.83;1.50;;;;;;;;;;10225309;28;20105;-73
2022/06/21 13:04:30;;;;;;;2.10;1.60;;;;;;;;;;10224991;28;20720;-73
2022/06/21 13:09:33;;;;;;;1.50;1.40;;;;;;;;;;10221746;28;20048;-73
2022/06/21 13:14:39;;;;;;;1.40;1.30;;;;;;;;;;10225475;28;20177;-72
2022/06/21 13:19:50;;;;;;;1.90;1.40;;;;;;;;;;10213462;28;20626;-74
2022/06/21 13:24:58;;;;;;;2.20;1.27;;;;;;;;;;10218723;28;20076;-73
2022/06/21 13:30:28;;;;;;;1.67;1.35;;;;;;;;;;10222604;28;20134;-73
2022/06/21 13:35:32;;;;;;;2.10;1.33;;;;;;;;;;10220725;28;20182;-74
2022/06/21 13:40:44;;;;;;;2.10;1.20;;;;;;;;;;10213607;28;20525;-74
2022/06/21 13:45:59;;;;;;;2.60;1.23;;;;;;;;;;10230910;28;20555;-74
2022/06/21 13:51:06;;;;;;;2.38;1.80;;;;;;;;;;10215948;28;20646;-72
2022/06/21 13:56:20;;;;;;;1.40;1.23;;;;;;;;;;10219103;28;20059;-73
2022/06/21 14:01:20;;;;;;;1.75;1.65;;;;;;;;;;10230896;28;20078;-74
2022/06/21 14:06:21;;;;;;;1.77;1.30;;;;;;;;;;10220529;28;20062;-73
2022/06/21 14:11:29;;;;;;;1.40;1.30;;;;;;;;;;10230534;28;20135;-74
2022/06/21 14:16:44;;;;;;;2.65;1.30;;;;;;;;;;10225889;28;20064;-73
2022/06/21 14:21:54;;;;;;;2.78;1.58;;;;;;;;;;10227534;28;20507;-72
2022/06/21 14:26:57;;;;;;;1.83;1.30;;;;;;;;;;10233001;28;20645;-76
2022/06/21 14:32:14;;;;;;;1.40;1.20;;;;;;;;;;10228595;28;20071;-73
2022/06/21 14:37:17;;;;;;;2.15;1.15;;;;;;;;;;10226706;28;20137;-73
2022/06/21 14:42:22;;;;;;;2.45;1.20;;;;;;;;;;10233797;28;20055;-73
2022/06/21 14:47:30;;;;;;;1.35;1.20;;;;;;;;;;10230876;28;20069;-73
2022/06/21 14:52:30;;;;;;;2.72;1.48;;;;;;;;;;10231281;28;20194;-73
2022/06/21 14:57:30;;;;;;;1.93;1.10;;;;;;;;;;10218252;28;20051;-72
2022/06/21 15:02:40;;;;;;;2.83;1.40;;;;;;;;;;10228203;28;20488;-73
2022/06/21 15:07:59;;;;;;;2.10;1.30;;;;;;;;;;10234070;28;20047;-73
2022/06/21 15:13:04;;;;;;;2.92;1.50;;;;;;;;;;10225123;28;20051;-74
2022/06/21 15:18:04;;;;;;;1.17;1.08;;;;;;;;;;10220842;28;20047;-78
2022/06/21 15:23:08;;;;;;;3.20;1.40;;;;;;;;;;10236460;28;20537;-74
2022/06/21 15:28:27;;;;;;;2.65;1.30;;;;;;;;;;10222980;28;20314;-75
2022/06/21 15:33:30;;;;;;;1.75;1.20;;;;;;;;;;10233821;29;20069;-75
2022/06/21 15:38:42;;;;;;;1.88;1.70;;;;;;;;;;10226172;28;20050;-74
2022/06/21 15:43:44;;;;;;;2.27;1.40;;;;;;;;;;10224489;28;20191;-74
2022/06/21 15:54:08;;;;;;;1.40;1.30;;;;;;;;;;10220996;28;20491;-75
2022/06/21 15:59:16;;;;;;;2.08;1.40;;;;;;;;;;10219423;28;20134;-75
2022/06/21 16:04:36;;;;;;;2.05;1.42;;;;;;;;;;10233704;28;20147;-75
2022/06/21 16:09:40;;;;;;;1.60;1.50;;;;;;;;;;10233798;28;20047;-75
2022/06/21 16:14:43;;;;;;;4.50;2.13;;;;;;;;;;10240133;28;20047;-73
2022/06/21 16:19:46;;;;;;;5.32;3.75;;;;;;;;;;10230847;28;20051;-75
2022/06/21 16:24:53;;;;;;;2.30;1.60;;;;;;;;;;10237770;28;20363;-74
2022/06/21 16:29:58;;;;;;;1.58;1.40;;;;;;;;;;10231847;28;20168;-74
2022/06/21 16:35:21;;;;;;;3.13;1.45;;;;;;;;;;10240346;28;20070;-74
2022/06/21 16:45:51;;;;;;;2.08;1.63;;;;;;;;;;10234898;28;20051;-74
2022/06/21 16:50:51;;;;;;;1.60;1.50;;;;;;;;;;10237814;28;20053;-74
2022/06/21 16:55:54;;;;;;;3.50;1.53;;;;;;;;;;10242654;28;20039;-74
2022/06/21 17:01:02;;;;;;;2.65;2.42;;;;;;;;;;10233686;28;20051;-75
2022/06/21 17:06:03;;;;;;;3.00;1.27;;;;;;;;;;10230251;28;20059;-76
2022/06/21 17:11:27;;;;;;;2.00;1.90;;;;;;;;;;10243603;28;20163;-72
2022/06/21 17:16:31;;;;;;;1.60;1.40;;;;;;;;;;10227165;28;20040;-74
2022/06/21 17:21:41;;;;;;;2.17;1.65;;;;;;;;;;10216935;28;20055;-73
2022/06/21 17:26:47;;;;;;;1.90;1.67;;;;;;;;;;10224837;28;20142;-72
2022/06/21 17:31:53;;;;;;;1.58;1.40;;;;;;;;;;10217835;28;20197;-73
2022/06/21 17:36:53;;;;;;;1.77;1.50;;;;;;;;;;10232792;28;20062;-73
2022/06/21 17:41:54;;;;;;;2.80;2.60;;;;;;;;;;10232290;28;20062;-72
2022/06/21 17:46:57;;;;;;;1.87;1.70;;;;;;;;;;10235435;28;20109;-74
2022/06/21 17:51:59;;;;;;;2.05;1.60;;;;;;;;;;10234848;28;20051;-73
2022/06/21 17:57:02;;;;;;;4.10;1.85;;;;;;;;;;10228376;28;20043;-72
2022/06/21 18:02:21;;;;;;;3.55;2.17;;;;;;;;;;10242312;28;20047;-73
2022/06/21 18:07:42;;;;;;;10.32;8.85;;;;;;;;;;10230262;28;20494;-73
2022/06/21 18:13:05;;;;;;;5.03;2.35;;;;;;;;;;10221332;28;20130;-78
2022/06/21 18:18:12;;;;;;;3.05;2.05;;;;;;;;;;10237474;28;20128;-72
2022/06/21 18:23:27;;;;;;;2.80;2.50;;;;;;;;;;10233241;28;20568;-74
2022/06/21 18:28:33;;;;;;;3.35;3.05;;;;;;;;;;10223650;28;20062;-73
2022/06/21 18:33:34;;;;;;;5.38;4.90;;;;;;;;;;10223999;28;20554;-73
2022/06/21 18:39:01;;;;;;;3.17;2.85;;;;;;;;;;10233457;28;20050;-74
2022/06/21 18:44:24;;;;;;;2.60;2.33;;;;;;;;;;10232775;28;20059;-73
2022/06/21 18:49:34;;;;;;;2.47;2.00;;;;;;;;;;10197474;28;20047;-75
2022/06/21 18:54:40;;;;;;;1.60;1.50;;;;;;;;;;10231077;28;20040;-75
2022/06/21 19:00:10;;;;;;;2.90;1.70;;;;;;;;;;10212322;29;20071;-74
2022/06/21 19:10:57;;;;;;;2.03;1.83;;;;;;;;;;10237562;28;20058;-74
2022/06/21 19:16:17;;;;;;;2.35;1.80;;;;;;;;;;10230505;28;20415;-72
2022/06/21 19:21:30;;;;;;;2.72;2.20;;;;;;;;;;10231453;28;20400;-73
2022/06/21 19:26:31;;;;;;;;;;;;;;;;;;10228552;28;20074;-76
2022/06/21 19:31:57;;;;;;;7.07;6.38;;;;;;;;;;10254463;28;20026;-74
2022/06/21 19:37:06;;;;;;;3.53;2.60;;;;;;;;;;10217685;28;20440;-74
2022/06/21 19:42:36;;;;;;;2.35;2.15;;;;;;;;;;10229645;28;20055;-74
2022/06/21 19:47:48;;;;;;;3.08;2.13;;;;;;;;;;10228063;28;20150;-73
2022/06/21 19:52:49;;;;;;;2.47;2.05;;;;;;;;;;10243885;28;20040;-79
2022/06/21 19:57:50;;;;;;;2.20;2.00;;;;;;;;;;10244648;28;20052;-75
2022/06/21 20:02:56;;;;;;;2.28;2.00;;;;;;;;;;10238260;28;20159;-77
2022/06/21 20:08:10;;;;;;;2.70;2.00;;;;;;;;;;10253343;28;20051;-74
2022/06/21 20:13:28;;;;;;;2.08;1.88;;;;;;;;;;10241797;28;20111;-78
2022/06/21 20:18:47;;;;;;;2.25;2.05;;;;;;;;;;10240271;28;20107;-75
2022/06/21 20:23:48;;;;;;;2.10;1.90;;;;;;;;;;10230158;28;20071;-75
2022/06/21 20:28:54;;;;;;;2.42;1.98;;;;;;;;;;10237228;28;20048;-79
2022/06/21 20:33:56;;;;;;;3.80;2.60;;;;;;;;;;10225384;29;20051;-77
2022/06/21 20:39:03;;;;;;;2.50;2.30;;;;;;;;;;10219475;28;20051;-79
2022/06/21 20:44:07;;;;;;;2.95;2.63;;;;;;;;;;10234968;28;20057;-76
2022/06/21 20:49:10;;;;;;;3.50;2.95;;;;;;;;;;10239861;28;20047;-76
2022/06/21 20:54:11;;;;;;;3.00;2.70;;;;;;;;;;10233079;28;20047;-76
2022/06/21 20:59:14;;;;;;;4.93;2.83;;;;;;;;;;10232292;28;20047;-79
2022/06/21 21:04:26;;;;;;;4.35;2.67;;;;;;;;;;10236435;28;20287;-78
2022/06/21 21:09:35;;;;;;;3.60;2.60;;;;;;;;;;10239437;28;20058;-75
2022/06/21 21:14:37;;;;;;;3.03;2.63;;;;;;;;;;10220606;28;20125;-77
2022/06/21 21:19:38;;;;;;;;;;;;;;;;;;10224560;28;20063;-75
2022/06/21 21:24:41;;;;;;;3.80;2.55;;;;;;;;;;10222978;28;19923;-77
2022/06/21 21:29:43;;;;;;;6.40;2.70;;;;;;;;;;10217343;28;20048;-78
2022/06/21 21:34:56;;;;;;;3.10;2.40;;;;;;;;;;10226927;28;20048;-81
2022/06/21 21:40:09;;;;;;;4.70;3.30;;;;;;;;;;10227814;28;20074;-77
2022/06/21 21:45:11;;;;;;;4.50;3.42;;;;;;;;;;10226959;28;20383;-75
2022/06/21 21:50:13;;;;;;;4.00;3.17;;;;;;;;;;10215277;28;20564;-75
2022/06/21 21:55:50;;;;;;;3.53;2.60;;;;;;;;;;10226810;28;20047;-76
2022/06/21 22:01:17;;;;;;;3.40;2.92;;;;;;;;;;10214648;28;20067;-76
2022/06/21 22:06:22;;;;;;;5.55;3.55;;;;;;;;;;10220590;28;20753;-76
2022/06/21 22:11:52;;;;;;;6.20;3.50;;;;;;;;;;10225185;28;20051;-75
2022/06/21 22:17:04;;;;;;;5.05;3.40;;;;;;;;;;10198330;29;20058;-77
2022/06/21 22:22:19;;;;;;;4.67;4.10;;;;;;;;;;10224508;28;20110;-78
2022/06/21 22:27:25;;;;;;;4.93;3.83;;;;;;;;;;10218033;28;20062;-77
2022/06/21 22:32:27;;;;;;;4.10;3.70;;;;;;;;;;10225339;29;20047;-75
2022/06/21 22:37:32;;;;;;;4.30;3.50;;;;;;;;;;10232514;28;20112;-76
2022/06/21 22:42:32;;;;;;;4.63;3.90;;;;;;;;;;10227638;28;20593;-77
2022/06/21 22:47:34;;;;;;;5.17;3.90;;;;;;;;;;10224654;28;20074;-77
2022/06/21 22:52:36;;;;;;;3.38;2.92;;;;;;;;;;10220052;28;20276;-77
2022/06/21 22:57:47;;;;;;;4.97;3.00;;;;;;;;;;10222695;28;20127;-75
2022/06/21 23:03:23;;;;;;;4.50;3.38;;;;;;;;;;10222803;28;20060;-75
2022/06/21 23:08:25;;;;;;;3.47;3.05;;;;;;;;;;10169592;28;20091;-75
2022/06/21 23:13:36;;;;;;;4.15;3.25;;;;;;;;;;10225445;28;20126;-79
2022/06/21 23:18:39;;;;;;;3.22;2.80;;;;;;;;;;10221489;28;20131;-75
2022/06/21 23:23:39;;;;;;;;;;;;;;;;;;10206831;28;20607;-75
2022/06/21 23:28:40;;;;;;;4.05;3.00;;;;;;;;;;10228701;28;19977;-75
2022/06/21 23:33:40;;;;;;;3.42;3.00;;;;;;;;;;10237737;28;20059;-77
2022/06/21 23:38:47;;;;;;;3.42;3.10;;;;;;;;;;10225737;28;20048;-76
2022/06/21 23:43:58;;;;;;;3.72;3.40;;;;;;;;;;10231549;28;20445;-76
2022/06/21 23:49:03;;;;;;;4.65;3.25;;;;;;;;;;10233938;28;20061;-77
2022/06/21 23:54:04;;;;;;;3.35;3.13;;;;;;;;;;10230649;28;20486;-77
2022/06/21 23:59:04;;;;;;;4.07;3.30;;;;;;;;;;10226393;28;20043;-76
